West Ridge, Arkansas
Current Conditions -  °F | °C
As of 3:53 PM on Thursday 23 Oct 2014 (Local Time) from KJBR Reporting Station
Clear Clear  
Wind Chill: 59°   Ceiling: Unl
Heat Index: 59°   Visibility: 10mi
Dew Point: 46°   Wind: 0mph
Humidity: 62%   Direction: NA
Pressure: 30.16"   Gusts: NA
Location:  35.68°N, 90.26°W
Report Text: KJBR 232053Z AUTO 00000KT 10SM CLR 15/08 A3016 RMK AO2 SLP211 T01500078 55012
Loading
Personal Weather Stations






























Interactive Weather Map
Tropical Storm Tracking
New forecast layout! Learn more

10-Day Weather Forecast

Advertisements
Track Severe Weather on mobile